sensor_id;sensor_type;location;lat;lon;timestamp;P1;durP1;ratioP1;P2;durP2;ratioP2
36001;SDS011;22070;50.922;5.430;2022-08-16T00:01:19;7.72;;;6.85;;
36001;SDS011;22070;50.922;5.430;2022-08-16T00:03:46;7.28;;;6.18;;
36001;SDS011;22070;50.922;5.430;2022-08-16T00:06:12;11.20;;;6.80;;
36001;SDS011;22070;50.922;5.430;2022-08-16T00:08:37;8.07;;;6.03;;
36001;SDS011;22070;50.922;5.430;2022-08-16T00:11:05;11.67;;;6.27;;
36001;SDS011;22070;50.922;5.430;2022-08-16T00:13:32;7.97;;;6.53;;
36001;SDS011;22070;50.922;5.430;2022-08-16T00:15:59;8.48;;;6.07;;
36001;SDS011;22070;50.922;5.430;2022-08-16T00:18:24;8.07;;;6.60;;
36001;SDS011;22070;50.922;5.430;2022-08-16T00:20:50;7.83;;;6.20;;
36001;SDS011;22070;50.922;5.430;2022-08-16T00:23:16;9.07;;;6.75;;
36001;SDS011;22070;50.922;5.430;2022-08-16T00:25:42;10.93;;;6.18;;
36001;SDS011;22070;50.922;5.430;2022-08-16T00:28:08;7.80;;;6.10;;
36001;SDS011;22070;50.922;5.430;2022-08-16T00:30:33;7.93;;;6.30;;
36001;SDS011;22070;50.922;5.430;2022-08-16T00:33:00;7.87;;;6.47;;
36001;SDS011;22070;50.922;5.430;2022-08-16T00:35:28;6.57;;;5.65;;
36001;SDS011;22070;50.922;5.430;2022-08-16T00:37:59;9.93;;;5.70;;
36001;SDS011;22070;50.922;5.430;2022-08-16T00:40:32;6.63;;;5.68;;
36001;SDS011;22070;50.922;5.430;2022-08-16T00:43:12;6.25;;;5.65;;
36001;SDS011;22070;50.922;5.430;2022-08-16T00:45:47;7.45;;;5.60;;
36001;SDS011;22070;50.922;5.430;2022-08-16T00:48:44;8.02;;;5.85;;
36001;SDS011;22070;50.922;5.430;2022-08-16T00:51:10;7.70;;;6.03;;
36001;SDS011;22070;50.922;5.430;2022-08-16T00:53:39;9.77;;;6.50;;
36001;SDS011;22070;50.922;5.430;2022-08-16T00:56:07;7.87;;;6.50;;
36001;SDS011;22070;50.922;5.430;2022-08-16T00:58:37;6.57;;;5.85;;
36001;SDS011;22070;50.922;5.430;2022-08-16T01:01:04;8.85;;;5.72;;
36001;SDS011;22070;50.922;5.430;2022-08-16T01:03:31;7.25;;;5.60;;
36001;SDS011;22070;50.922;5.430;2022-08-16T01:05:57;6.67;;;5.30;;
36001;SDS011;22070;50.922;5.430;2022-08-16T01:08:23;7.97;;;6.03;;
36001;SDS011;22070;50.922;5.430;2022-08-16T01:10:50;7.28;;;6.05;;
36001;SDS011;22070;50.922;5.430;2022-08-16T01:13:26;9.45;;;6.40;;
36001;SDS011;22070;50.922;5.430;2022-08-16T01:16:16;8.73;;;5.68;;
36001;SDS011;22070;50.922;5.430;2022-08-16T01:18:44;10.20;;;5.93;;
36001;SDS011;22070;50.922;5.430;2022-08-16T01:26:29;7.35;;;5.60;;
36001;SDS011;22070;50.922;5.430;2022-08-16T01:28:58;7.05;;;5.60;;
36001;SDS011;22070;50.922;5.430;2022-08-16T01:31:28;6.53;;;5.90;;
36001;SDS011;22070;50.922;5.430;2022-08-16T01:33:54;7.50;;;5.73;;
36001;SDS011;22070;50.922;5.430;2022-08-16T01:36:20;7.90;;;5.72;;
36001;SDS011;22070;50.922;5.430;2022-08-16T01:38:47;6.78;;;5.47;;
36001;SDS011;22070;50.922;5.430;2022-08-16T01:41:18;6.05;;;5.55;;
36001;SDS011;22070;50.922;5.430;2022-08-16T01:43:48;10.60;;;5.57;;
36001;SDS011;22070;50.922;5.430;2022-08-16T01:46:22;9.88;;;6.22;;
36001;SDS011;22070;50.922;5.430;2022-08-16T01:48:58;9.27;;;6.40;;
36001;SDS011;22070;50.922;5.430;2022-08-16T01:51:26;8.65;;;5.90;;
36001;SDS011;22070;50.922;5.430;2022-08-16T01:53:53;6.55;;;5.70;;
36001;SDS011;22070;50.922;5.430;2022-08-16T01:56:20;8.13;;;6.17;;
36001;SDS011;22070;50.922;5.430;2022-08-16T01:58:47;9.32;;;5.90;;
36001;SDS011;22070;50.922;5.430;2022-08-16T02:01:12;6.80;;;5.90;;
36001;SDS011;22070;50.922;5.430;2022-08-16T02:03:38;9.32;;;5.88;;
36001;SDS011;22070;50.922;5.430;2022-08-16T02:06:04;8.73;;;6.22;;
36001;SDS011;22070;50.922;5.430;2022-08-16T02:08:32;7.35;;;5.70;;
36001;SDS011;22070;50.922;5.430;2022-08-16T02:10:58;8.65;;;6.18;;
36001;SDS011;22070;50.922;5.430;2022-08-16T02:13:24;10.38;;;6.50;;
36001;SDS011;22070;50.922;5.430;2022-08-16T02:15:49;6.90;;;5.83;;
36001;SDS011;22070;50.922;5.430;2022-08-16T02:18:15;7.43;;;6.63;;
36001;SDS011;22070;50.922;5.430;2022-08-16T02:20:42;7.80;;;6.10;;
36001;SDS011;22070;50.922;5.430;2022-08-16T02:23:13;7.07;;;5.90;;
36001;SDS011;22070;50.922;5.430;2022-08-16T02:25:38;9.80;;;6.63;;
36001;SDS011;22070;50.922;5.430;2022-08-16T02:28:04;8.15;;;6.00;;
36001;SDS011;22070;50.922;5.430;2022-08-16T02:30:30;6.80;;;5.70;;
36001;SDS011;22070;50.922;5.430;2022-08-16T02:32:56;6.72;;;6.13;;
36001;SDS011;22070;50.922;5.430;2022-08-16T02:35:22;7.88;;;6.00;;
36001;SDS011;22070;50.922;5.430;2022-08-16T02:40:16;6.70;;;5.75;;
36001;SDS011;22070;50.922;5.430;2022-08-16T02:42:43;7.50;;;6.13;;
36001;SDS011;22070;50.922;5.430;2022-08-16T02:45:09;9.00;;;5.72;;
36001;SDS011;22070;50.922;5.430;2022-08-16T02:47:35;6.70;;;6.00;;
36001;SDS011;22070;50.922;5.430;2022-08-16T02:50:01;9.07;;;5.83;;
36001;SDS011;22070;50.922;5.430;2022-08-16T02:54:53;8.13;;;6.20;;
36001;SDS011;22070;50.922;5.430;2022-08-16T02:57:19;6.55;;;5.80;;
36001;SDS011;22070;50.922;5.430;2022-08-16T03:02:11;7.83;;;6.07;;
36001;SDS011;22070;50.922;5.430;2022-08-16T03:04:37;9.50;;;6.60;;
36001;SDS011;22070;50.922;5.430;2022-08-16T03:07:03;6.90;;;5.97;;
36001;SDS011;22070;50.922;5.430;2022-08-16T03:09:30;7.45;;;6.72;;
36001;SDS011;22070;50.922;5.430;2022-08-16T03:11:59;15.35;;;6.50;;
36001;SDS011;22070;50.922;5.430;2022-08-16T03:14:24;9.40;;;6.70;;
36001;SDS011;22070;50.922;5.430;2022-08-16T03:16:51;9.05;;;6.10;;
36001;SDS011;22070;50.922;5.430;2022-08-16T03:19:18;8.13;;;6.05;;
36001;SDS011;22070;50.922;5.430;2022-08-16T03:21:43;8.23;;;7.40;;
36001;SDS011;22070;50.922;5.430;2022-08-16T03:24:10;11.15;;;7.35;;
36001;SDS011;22070;50.922;5.430;2022-08-16T03:26:36;9.87;;;7.80;;
36001;SDS011;22070;50.922;5.430;2022-08-16T03:29:02;8.83;;;7.80;;
36001;SDS011;22070;50.922;5.430;2022-08-16T03:31:28;9.20;;;7.10;;
36001;SDS011;22070;50.922;5.430;2022-08-16T03:33:54;12.40;;;7.90;;
36001;SDS011;22070;50.922;5.430;2022-08-16T03:36:20;11.80;;;7.45;;
36001;SDS011;22070;50.922;5.430;2022-08-16T03:38:46;9.57;;;7.13;;
36001;SDS011;22070;50.922;5.430;2022-08-16T03:41:11;7.47;;;6.67;;
36001;SDS011;22070;50.922;5.430;2022-08-16T03:43:38;9.37;;;6.97;;
36001;SDS011;22070;50.922;5.430;2022-08-16T03:46:03;9.70;;;6.77;;
36001;SDS011;22070;50.922;5.430;2022-08-16T03:48:31;8.65;;;7.07;;
36001;SDS011;22070;50.922;5.430;2022-08-16T03:50:58;10.13;;;7.45;;
36001;SDS011;22070;50.922;5.430;2022-08-16T03:53:25;9.07;;;7.20;;
36001;SDS011;22070;50.922;5.430;2022-08-16T03:55:52;9.00;;;7.47;;
36001;SDS011;22070;50.922;5.430;2022-08-16T03:58:17;13.85;;;7.97;;
36001;SDS011;22070;50.922;5.430;2022-08-16T04:00:43;8.30;;;7.32;;
36001;SDS011;22070;50.922;5.430;2022-08-16T04:03:09;8.33;;;7.23;;
36001;SDS011;22070;50.922;5.430;2022-08-16T04:05:38;9.17;;;7.20;;
36001;SDS011;22070;50.922;5.430;2022-08-16T04:08:06;11.15;;;7.32;;
36001;SDS011;22070;50.922;5.430;2022-08-16T04:10:31;9.90;;;7.07;;
36001;SDS011;22070;50.922;5.430;2022-08-16T04:12:57;9.48;;;7.70;;
36001;SDS011;22070;50.922;5.430;2022-08-16T04:15:23;11.10;;;6.82;;
36001;SDS011;22070;50.922;5.430;2022-08-16T04:17:50;8.38;;;7.10;;
36001;SDS011;22070;50.922;5.430;2022-08-16T04:20:16;8.38;;;7.43;;
36001;SDS011;22070;50.922;5.430;2022-08-16T04:22:42;9.57;;;7.30;;
36001;SDS011;22070;50.922;5.430;2022-08-16T04:25:08;8.40;;;7.60;;
36001;SDS011;22070;50.922;5.430;2022-08-16T04:27:35;9.48;;;8.43;;
36001;SDS011;22070;50.922;5.430;2022-08-16T04:30:04;10.20;;;8.35;;
36001;SDS011;22070;50.922;5.430;2022-08-16T04:32:32;9.30;;;8.30;;
36001;SDS011;22070;50.922;5.430;2022-08-16T04:34:58;10.73;;;7.97;;
36001;SDS011;22070;50.922;5.430;2022-08-16T04:37:24;12.50;;;7.93;;
36001;SDS011;22070;50.922;5.430;2022-08-16T04:39:49;9.60;;;7.70;;
36001;SDS011;22070;50.922;5.430;2022-08-16T04:42:16;12.57;;;8.07;;
36001;SDS011;22070;50.922;5.430;2022-08-16T04:44:43;11.35;;;8.05;;
36001;SDS011;22070;50.922;5.430;2022-08-16T04:47:10;9.57;;;7.05;;
36001;SDS011;22070;50.922;5.430;2022-08-16T04:49:36;11.48;;;7.63;;
36001;SDS011;22070;50.922;5.430;2022-08-16T04:52:02;11.57;;;8.50;;
36001;SDS011;22070;50.922;5.430;2022-08-16T04:54:28;11.48;;;7.75;;
36001;SDS011;22070;50.922;5.430;2022-08-16T04:56:54;10.88;;;7.80;;
36001;SDS011;22070;50.922;5.430;2022-08-16T04:59:19;9.75;;;7.78;;
36001;SDS011;22070;50.922;5.430;2022-08-16T05:01:45;9.25;;;8.25;;
36001;SDS011;22070;50.922;5.430;2022-08-16T05:04:10;11.10;;;8.13;;
36001;SDS011;22070;50.922;5.430;2022-08-16T05:06:36;9.32;;;7.15;;
36001;SDS011;22070;50.922;5.430;2022-08-16T05:09:02;8.93;;;6.07;;
36001;SDS011;22070;50.922;5.430;2022-08-16T05:11:28;9.48;;;7.60;;
36001;SDS011;22070;50.922;5.430;2022-08-16T05:13:54;10.50;;;7.60;;
36001;SDS011;22070;50.922;5.430;2022-08-16T05:16:22;8.97;;;7.87;;
36001;SDS011;22070;50.922;5.430;2022-08-16T05:18:51;10.25;;;8.50;;
36001;SDS011;22070;50.922;5.430;2022-08-16T05:21:19;10.65;;;7.90;;
36001;SDS011;22070;50.922;5.430;2022-08-16T05:23:45;12.18;;;7.57;;
36001;SDS011;22070;50.922;5.430;2022-08-16T05:26:11;9.50;;;8.03;;
36001;SDS011;22070;50.922;5.430;2022-08-16T05:28:37;9.55;;;8.52;;
36001;SDS011;22070;50.922;5.430;2022-08-16T05:31:03;9.23;;;7.53;;
36001;SDS011;22070;50.922;5.430;2022-08-16T05:33:28;8.87;;;7.70;;
36001;SDS011;22070;50.922;5.430;2022-08-16T05:35:55;8.57;;;7.75;;
36001;SDS011;22070;50.922;5.430;2022-08-16T05:38:21;8.65;;;7.20;;
36001;SDS011;22070;50.922;5.430;2022-08-16T05:40:58;10.63;;;7.53;;
36001;SDS011;22070;50.922;5.430;2022-08-16T05:43:25;9.65;;;7.95;;
36001;SDS011;22070;50.922;5.430;2022-08-16T05:45:51;13.00;;;8.38;;
36001;SDS011;22070;50.922;5.430;2022-08-16T05:48:18;12.18;;;8.15;;
36001;SDS011;22070;50.922;5.430;2022-08-16T05:50:44;10.30;;;8.02;;
36001;SDS011;22070;50.922;5.430;2022-08-16T05:53:10;10.20;;;8.47;;
36001;SDS011;22070;50.922;5.430;2022-08-16T05:55:36;9.40;;;8.03;;
36001;SDS011;22070;50.922;5.430;2022-08-16T05:58:01;10.02;;;7.70;;
36001;SDS011;22070;50.922;5.430;2022-08-16T06:00:27;9.17;;;7.73;;
36001;SDS011;22070;50.922;5.430;2022-08-16T06:02:54;9.47;;;8.00;;
36001;SDS011;22070;50.922;5.430;2022-08-16T06:05:21;10.35;;;7.72;;
36001;SDS011;22070;50.922;5.430;2022-08-16T06:07:47;8.73;;;7.80;;
36001;SDS011;22070;50.922;5.430;2022-08-16T06:10:13;9.53;;;7.70;;
36001;SDS011;22070;50.922;5.430;2022-08-16T06:12:39;10.63;;;7.65;;
36001;SDS011;22070;50.922;5.430;2022-08-16T06:15:09;9.27;;;7.43;;
36001;SDS011;22070;50.922;5.430;2022-08-16T06:17:41;9.55;;;7.10;;
36001;SDS011;22070;50.922;5.430;2022-08-16T06:20:08;10.13;;;7.30;;
36001;SDS011;22070;50.922;5.430;2022-08-16T06:22:36;9.57;;;7.85;;
36001;SDS011;22070;50.922;5.430;2022-08-16T06:25:02;9.43;;;7.15;;
36001;SDS011;22070;50.922;5.430;2022-08-16T06:27:29;10.15;;;7.10;;
36001;SDS011;22070;50.922;5.430;2022-08-16T06:29:55;9.27;;;7.05;;
36001;SDS011;22070;50.922;5.430;2022-08-16T06:32:21;9.90;;;7.27;;
36001;SDS011;22070;50.922;5.430;2022-08-16T06:34:46;8.77;;;6.70;;
36001;SDS011;22070;50.922;5.430;2022-08-16T06:37:12;12.60;;;7.23;;
36001;SDS011;22070;50.922;5.430;2022-08-16T06:39:38;11.17;;;6.80;;
36001;SDS011;22070;50.922;5.430;2022-08-16T06:42:03;9.27;;;6.47;;
36001;SDS011;22070;50.922;5.430;2022-08-16T06:44:29;10.00;;;7.30;;
36001;SDS011;22070;50.922;5.430;2022-08-16T06:46:55;7.33;;;6.63;;
36001;SDS011;22070;50.922;5.430;2022-08-16T06:49:21;8.30;;;5.40;;
36001;SDS011;22070;50.922;5.430;2022-08-16T06:51:47;8.73;;;6.77;;
36001;SDS011;22070;50.922;5.430;2022-08-16T06:54:13;8.27;;;6.90;;
36001;SDS011;22070;50.922;5.430;2022-08-16T06:56:38;9.03;;;7.43;;
36001;SDS011;22070;50.922;5.430;2022-08-16T06:59:04;8.07;;;7.17;;
36001;SDS011;22070;50.922;5.430;2022-08-16T07:01:30;9.25;;;7.53;;
36001;SDS011;22070;50.922;5.430;2022-08-16T07:03:56;9.50;;;6.90;;
36001;SDS011;22070;50.922;5.430;2022-08-16T07:06:22;8.60;;;7.70;;
36001;SDS011;22070;50.922;5.430;2022-08-16T07:08:48;12.60;;;7.65;;
36001;SDS011;22070;50.922;5.430;2022-08-16T07:11:14;9.43;;;7.60;;
36001;SDS011;22070;50.922;5.430;2022-08-16T07:13:41;7.80;;;7.07;;
36001;SDS011;22070;50.922;5.430;2022-08-16T07:16:07;8.50;;;7.63;;
36001;SDS011;22070;50.922;5.430;2022-08-16T07:18:38;9.77;;;6.95;;
36001;SDS011;22070;50.922;5.430;2022-08-16T07:21:06;8.25;;;7.20;;
36001;SDS011;22070;50.922;5.430;2022-08-16T07:23:32;8.52;;;7.07;;
36001;SDS011;22070;50.922;5.430;2022-08-16T07:25:58;8.50;;;7.53;;
36001;SDS011;22070;50.922;5.430;2022-08-16T07:28:24;8.97;;;7.57;;
36001;SDS011;22070;50.922;5.430;2022-08-16T07:30:49;8.37;;;7.57;;
36001;SDS011;22070;50.922;5.430;2022-08-16T07:33:15;8.37;;;7.17;;
36001;SDS011;22070;50.922;5.430;2022-08-16T07:35:41;9.48;;;7.18;;
36001;SDS011;22070;50.922;5.430;2022-08-16T07:38:08;11.35;;;7.55;;
36001;SDS011;22070;50.922;5.430;2022-08-16T07:40:34;7.83;;;6.80;;
36001;SDS011;22070;50.922;5.430;2022-08-16T07:43:00;9.50;;;6.70;;
36001;SDS011;22070;50.922;5.430;2022-08-16T07:45:27;8.30;;;6.75;;
36001;SDS011;22070;50.922;5.430;2022-08-16T07:47:52;7.50;;;6.30;;
36001;SDS011;22070;50.922;5.430;2022-08-16T07:50:18;10.00;;;6.47;;
36001;SDS011;22070;50.922;5.430;2022-08-16T07:52:45;10.77;;;6.50;;
36001;SDS011;22070;50.922;5.430;2022-08-16T07:55:11;9.10;;;6.23;;
36001;SDS011;22070;50.922;5.430;2022-08-16T07:57:42;7.70;;;6.13;;
36001;SDS011;22070;50.922;5.430;2022-08-16T08:00:09;7.65;;;5.78;;
36001;SDS011;22070;50.922;5.430;2022-08-16T08:02:37;10.30;;;6.25;;
36001;SDS011;22070;50.922;5.430;2022-08-16T08:05:02;7.17;;;6.47;;
36001;SDS011;22070;50.922;5.430;2022-08-16T08:07:29;6.45;;;5.88;;
36001;SDS011;22070;50.922;5.430;2022-08-16T08:09:55;6.90;;;6.20;;
36001;SDS011;22070;50.922;5.430;2022-08-16T08:12:22;9.63;;;6.47;;
36001;SDS011;22070;50.922;5.430;2022-08-16T08:14:48;7.15;;;6.20;;
36001;SDS011;22070;50.922;5.430;2022-08-16T08:17:14;6.67;;;5.97;;
36001;SDS011;22070;50.922;5.430;2022-08-16T08:19:40;9.50;;;6.57;;
36001;SDS011;22070;50.922;5.430;2022-08-16T08:22:06;8.90;;;5.90;;
36001;SDS011;22070;50.922;5.430;2022-08-16T08:24:33;9.00;;;6.28;;
36001;SDS011;22070;50.922;5.430;2022-08-16T08:27:03;9.63;;;6.63;;
36001;SDS011;22070;50.922;5.430;2022-08-16T08:29:29;7.30;;;6.03;;
36001;SDS011;22070;50.922;5.430;2022-08-16T08:31:56;9.27;;;6.50;;
36001;SDS011;22070;50.922;5.430;2022-08-16T08:34:23;7.47;;;6.75;;
36001;SDS011;22070;50.922;5.430;2022-08-16T08:36:49;9.25;;;6.85;;
36001;SDS011;22070;50.922;5.430;2022-08-16T08:39:15;11.75;;;7.18;;
36001;SDS011;22070;50.922;5.430;2022-08-16T08:41:41;11.20;;;6.83;;
36001;SDS011;22070;50.922;5.430;2022-08-16T08:46:34;9.20;;;6.63;;
36001;SDS011;22070;50.922;5.430;2022-08-16T08:48:59;8.37;;;7.23;;
36001;SDS011;22070;50.922;5.430;2022-08-16T08:51:25;8.57;;;6.87;;
36001;SDS011;22070;50.922;5.430;2022-08-16T08:53:51;7.53;;;6.82;;
36001;SDS011;22070;50.922;5.430;2022-08-16T08:56:17;7.90;;;7.07;;
36001;SDS011;22070;50.922;5.430;2022-08-16T08:58:43;8.50;;;6.82;;
36001;SDS011;22070;50.922;5.430;2022-08-16T09:01:09;8.33;;;6.90;;
36001;SDS011;22070;50.922;5.430;2022-08-16T09:03:35;8.30;;;7.37;;
36001;SDS011;22070;50.922;5.430;2022-08-16T09:06:03;7.63;;;6.20;;
36001;SDS011;22070;50.922;5.430;2022-08-16T09:08:30;9.32;;;7.15;;
36001;SDS011;22070;50.922;5.430;2022-08-16T09:10:56;7.07;;;6.35;;
36001;SDS011;22070;50.922;5.430;2022-08-16T09:13:23;7.57;;;6.80;;
36001;SDS011;22070;50.922;5.430;2022-08-16T09:15:50;7.93;;;6.70;;
36001;SDS011;22070;50.922;5.430;2022-08-16T09:18:18;9.52;;;6.75;;
36001;SDS011;22070;50.922;5.430;2022-08-16T09:20:44;7.00;;;6.07;;
36001;SDS011;22070;50.922;5.430;2022-08-16T09:23:10;7.25;;;6.07;;
36001;SDS011;22070;50.922;5.430;2022-08-16T09:25:36;8.73;;;6.28;;
36001;SDS011;22070;50.922;5.430;2022-08-16T09:28:03;8.23;;;6.50;;
36001;SDS011;22070;50.922;5.430;2022-08-16T09:32:55;8.73;;;6.50;;
36001;SDS011;22070;50.922;5.430;2022-08-16T09:35:22;8.95;;;6.25;;
36001;SDS011;22070;50.922;5.430;2022-08-16T09:37:48;10.87;;;6.37;;
36001;SDS011;22070;50.922;5.430;2022-08-16T09:40:13;10.37;;;7.00;;
36001;SDS011;22070;50.922;5.430;2022-08-16T09:42:39;9.32;;;6.25;;
36001;SDS011;22070;50.922;5.430;2022-08-16T09:45:06;7.35;;;6.30;;
36001;SDS011;22070;50.922;5.430;2022-08-16T09:47:33;8.43;;;6.28;;
36001;SDS011;22070;50.922;5.430;2022-08-16T09:50:04;7.97;;;5.78;;
36001;SDS011;22070;50.922;5.430;2022-08-16T09:52:31;8.15;;;6.57;;
36001;SDS011;22070;50.922;5.430;2022-08-16T09:54:59;9.05;;;6.88;;
36001;SDS011;22070;50.922;5.430;2022-08-16T09:57:27;7.60;;;6.72;;
36001;SDS011;22070;50.922;5.430;2022-08-16T09:59:53;6.22;;;5.57;;
36001;SDS011;22070;50.922;5.430;2022-08-16T10:02:18;9.93;;;5.63;;
36001;SDS011;22070;50.922;5.430;2022-08-16T10:04:44;8.10;;;5.60;;
36001;SDS011;22070;50.922;5.430;2022-08-16T10:07:10;9.27;;;5.70;;
36001;SDS011;22070;50.922;5.430;2022-08-16T10:09:35;8.03;;;5.73;;
36001;SDS011;22070;50.922;5.430;2022-08-16T10:12:01;10.50;;;5.60;;
36001;SDS011;22070;50.922;5.430;2022-08-16T10:14:46;9.02;;;5.68;;
36001;SDS011;22070;50.922;5.430;2022-08-16T10:17:11;6.53;;;5.57;;
36001;SDS011;22070;50.922;5.430;2022-08-16T10:19:37;8.60;;;5.47;;
36001;SDS011;22070;50.922;5.430;2022-08-16T10:22:03;7.63;;;5.40;;
36001;SDS011;22070;50.922;5.430;2022-08-16T10:24:29;8.25;;;5.57;;
36001;SDS011;22070;50.922;5.430;2022-08-16T10:26:55;8.23;;;6.27;;
36001;SDS011;22070;50.922;5.430;2022-08-16T10:29:21;7.30;;;6.28;;
36001;SDS011;22070;50.922;5.430;2022-08-16T10:31:47;6.63;;;5.75;;
36001;SDS011;22070;50.922;5.430;2022-08-16T10:34:13;6.93;;;6.10;;
36001;SDS011;22070;50.922;5.430;2022-08-16T10:36:39;6.50;;;5.80;;
36001;SDS011;22070;50.922;5.430;2022-08-16T10:39:05;8.47;;;5.60;;
36001;SDS011;22070;50.922;5.430;2022-08-16T10:43:57;7.40;;;6.18;;
36001;SDS011;22070;50.922;5.430;2022-08-16T10:46:23;9.25;;;5.90;;
36001;SDS011;22070;50.922;5.430;2022-08-16T10:48:49;7.50;;;5.47;;
36001;SDS011;22070;50.922;5.430;2022-08-16T10:51:14;6.15;;;5.45;;
36001;SDS011;22070;50.922;5.430;2022-08-16T10:53:41;10.45;;;6.20;;
36001;SDS011;22070;50.922;5.430;2022-08-16T10:56:08;8.03;;;5.50;;
36001;SDS011;22070;50.922;5.430;2022-08-16T10:58:36;6.43;;;5.90;;
36001;SDS011;22070;50.922;5.430;2022-08-16T11:01:06;6.85;;;5.28;;
36001;SDS011;22070;50.922;5.430;2022-08-16T11:03:34;6.03;;;5.43;;
36001;SDS011;22070;50.922;5.430;2022-08-16T11:08:27;8.25;;;5.80;;
36001;SDS011;22070;50.922;5.430;2022-08-16T11:10:52;6.68;;;6.00;;
36001;SDS011;22070;50.922;5.430;2022-08-16T11:13:19;9.73;;;5.30;;
36001;SDS011;22070;50.922;5.430;2022-08-16T11:15:47;8.57;;;5.30;;
36001;SDS011;22070;50.922;5.430;2022-08-16T11:18:13;9.13;;;5.45;;
36001;SDS011;22070;50.922;5.430;2022-08-16T11:20:40;8.82;;;5.82;;
36001;SDS011;22070;50.922;5.430;2022-08-16T11:23:08;6.22;;;5.50;;
36001;SDS011;22070;50.922;5.430;2022-08-16T11:25:35;6.65;;;5.95;;
36001;SDS011;22070;50.922;5.430;2022-08-16T11:30:28;8.05;;;5.90;;
36001;SDS011;22070;50.922;5.430;2022-08-16T11:32:55;6.13;;;5.63;;
36001;SDS011;22070;50.922;5.430;2022-08-16T11:35:23;12.52;;;5.88;;
36001;SDS011;22070;50.922;5.430;2022-08-16T11:37:55;6.13;;;5.55;;
36001;SDS011;22070;50.922;5.430;2022-08-16T11:40:23;8.10;;;5.40;;
36001;SDS011;22070;50.922;5.430;2022-08-16T11:42:51;8.48;;;5.40;;
36001;SDS011;22070;50.922;5.430;2022-08-16T11:45:18;10.15;;;5.40;;
36001;SDS011;22070;50.922;5.430;2022-08-16T11:47:44;7.63;;;5.30;;
36001;SDS011;22070;50.922;5.430;2022-08-16T11:50:10;9.32;;;5.47;;
36001;SDS011;22070;50.922;5.430;2022-08-16T11:52:36;7.43;;;5.72;;
36001;SDS011;22070;50.922;5.430;2022-08-16T11:55:03;7.50;;;5.68;;
36001;SDS011;22070;50.922;5.430;2022-08-16T11:57:31;6.93;;;5.43;;
36001;SDS011;22070;50.922;5.430;2022-08-16T12:02:23;5.63;;;5.00;;
36001;SDS011;22070;50.922;5.430;2022-08-16T12:04:49;8.23;;;5.43;;
36001;SDS011;22070;50.922;5.430;2022-08-16T12:07:15;6.20;;;4.85;;
36001;SDS011;22070;50.922;5.430;2022-08-16T12:09:40;4.72;;;4.32;;
36001;SDS011;22070;50.922;5.430;2022-08-16T12:12:06;5.63;;;5.13;;
36001;SDS011;22070;50.922;5.430;2022-08-16T12:14:33;5.43;;;4.70;;
36001;SDS011;22070;50.922;5.430;2022-08-16T12:16:59;7.20;;;5.60;;
36001;SDS011;22070;50.922;5.430;2022-08-16T12:19:27;6.22;;;5.63;;
36001;SDS011;22070;50.922;5.430;2022-08-16T12:21:53;7.57;;;5.07;;
36001;SDS011;22070;50.922;5.430;2022-08-16T12:24:18;6.55;;;5.22;;
36001;SDS011;22070;50.922;5.430;2022-08-16T12:26:44;5.60;;;5.10;;
36001;SDS011;22070;50.922;5.430;2022-08-16T12:29:10;5.82;;;5.32;;
36001;SDS011;22070;50.922;5.430;2022-08-16T12:31:36;5.45;;;4.80;;
36001;SDS011;22070;50.922;5.430;2022-08-16T12:34:01;5.60;;;5.10;;
36001;SDS011;22070;50.922;5.430;2022-08-16T12:36:28;7.30;;;4.95;;
36001;SDS011;22070;50.922;5.430;2022-08-16T12:38:54;6.30;;;4.35;;
36001;SDS011;22070;50.922;5.430;2022-08-16T12:41:20;6.25;;;4.57;;
36001;SDS011;22070;50.922;5.430;2022-08-16T12:43:46;5.18;;;4.60;;
36001;SDS011;22070;50.922;5.430;2022-08-16T12:46:12;8.82;;;4.60;;
36001;SDS011;22070;50.922;5.430;2022-08-16T12:48:37;6.70;;;4.65;;
36001;SDS011;22070;50.922;5.430;2022-08-16T12:51:27;6.00;;;5.43;;
36001;SDS011;22070;50.922;5.430;2022-08-16T12:53:58;5.27;;;4.70;;
36001;SDS011;22070;50.922;5.430;2022-08-16T12:56:28;5.53;;;4.45;;
36001;SDS011;22070;50.922;5.430;2022-08-16T12:58:58;5.53;;;5.03;;
36001;SDS011;22070;50.922;5.430;2022-08-16T13:01:30;5.43;;;4.30;;
36001;SDS011;22070;50.922;5.430;2022-08-16T13:03:58;5.40;;;4.63;;
36001;SDS011;22070;50.922;5.430;2022-08-16T13:06:26;4.80;;;4.30;;
36001;SDS011;22070;50.922;5.430;2022-08-16T13:08:52;4.88;;;4.47;;
36001;SDS011;22070;50.922;5.430;2022-08-16T13:11:29;8.27;;;4.47;;
36001;SDS011;22070;50.922;5.430;2022-08-16T13:13:59;5.75;;;4.63;;
36001;SDS011;22070;50.922;5.430;2022-08-16T13:16:25;4.43;;;4.03;;
36001;SDS011;22070;50.922;5.430;2022-08-16T13:18:50;6.25;;;4.43;;
36001;SDS011;22070;50.922;5.430;2022-08-16T13:21:16;4.55;;;4.22;;
36001;SDS011;22070;50.922;5.430;2022-08-16T13:23:42;4.85;;;4.45;;
36001;SDS011;22070;50.922;5.430;2022-08-16T13:26:08;8.93;;;4.57;;
36001;SDS011;22070;50.922;5.430;2022-08-16T13:28:33;5.28;;;4.70;;
36001;SDS011;22070;50.922;5.430;2022-08-16T13:30:59;6.50;;;4.65;;
36001;SDS011;22070;50.922;5.430;2022-08-16T13:33:27;6.85;;;5.00;;
36001;SDS011;22070;50.922;5.430;2022-08-16T13:35:54;5.55;;;4.68;;
36001;SDS011;22070;50.922;5.430;2022-08-16T13:38:22;6.45;;;4.90;;
36001;SDS011;22070;50.922;5.430;2022-08-16T13:40:48;5.32;;;4.93;;
36001;SDS011;22070;50.922;5.430;2022-08-16T13:43:14;7.13;;;5.05;;
36001;SDS011;22070;50.922;5.430;2022-08-16T13:45:40;6.70;;;5.07;;
36001;SDS011;22070;50.922;5.430;2022-08-16T13:48:06;5.35;;;4.93;;
36001;SDS011;22070;50.922;5.430;2022-08-16T13:50:33;5.90;;;4.78;;
36001;SDS011;22070;50.922;5.430;2022-08-16T13:52:59;5.30;;;4.80;;
36001;SDS011;22070;50.922;5.430;2022-08-16T13:55:25;5.53;;;5.00;;
36001;SDS011;22070;50.922;5.430;2022-08-16T14:00:17;7.35;;;4.82;;
36001;SDS011;22070;50.922;5.430;2022-08-16T14:02:43;6.35;;;4.30;;
36001;SDS011;22070;50.922;5.430;2022-08-16T14:05:11;4.53;;;4.00;;
36001;SDS011;22070;50.922;5.430;2022-08-16T14:07:37;4.88;;;4.35;;
36001;SDS011;22070;50.922;5.430;2022-08-16T14:10:04;5.68;;;3.97;;
36001;SDS011;22070;50.922;5.430;2022-08-16T14:12:32;4.53;;;4.13;;
36001;SDS011;22070;50.922;5.430;2022-08-16T14:14:58;4.55;;;4.15;;
36001;SDS011;22070;50.922;5.430;2022-08-16T14:17:25;4.53;;;4.07;;
36001;SDS011;22070;50.922;5.430;2022-08-16T14:19:52;7.40;;;4.15;;
36001;SDS011;22070;50.922;5.430;2022-08-16T14:22:25;4.32;;;3.85;;
36001;SDS011;22070;50.922;5.430;2022-08-16T14:24:53;4.15;;;3.85;;
36001;SDS011;22070;50.922;5.430;2022-08-16T14:27:21;4.60;;;4.20;;
36001;SDS011;22070;50.922;5.430;2022-08-16T14:29:50;5.82;;;4.40;;
36001;SDS011;22070;50.922;5.430;2022-08-16T14:32:18;5.15;;;4.22;;
36001;SDS011;22070;50.922;5.430;2022-08-16T14:34:44;6.70;;;4.68;;
36001;SDS011;22070;50.922;5.430;2022-08-16T14:37:10;4.60;;;4.20;;
36001;SDS011;22070;50.922;5.430;2022-08-16T14:39:35;4.38;;;3.85;;
36001;SDS011;22070;50.922;5.430;2022-08-16T14:42:02;6.28;;;4.50;;
36001;SDS011;22070;50.922;5.430;2022-08-16T14:44:33;5.00;;;3.90;;
36001;SDS011;22070;50.922;5.430;2022-08-16T14:49:24;4.38;;;4.00;;
36001;SDS011;22070;50.922;5.430;2022-08-16T14:51:50;5.57;;;5.07;;
36001;SDS011;22070;50.922;5.430;2022-08-16T14:54:16;9.20;;;4.60;;
36001;SDS011;22070;50.922;5.430;2022-08-16T14:56:42;6.72;;;5.13;;
36001;SDS011;22070;50.922;5.430;2022-08-16T14:59:07;6.18;;;5.18;;
36001;SDS011;22070;50.922;5.430;2022-08-16T15:01:33;6.57;;;4.85;;
36001;SDS011;22070;50.922;5.430;2022-08-16T15:03:59;4.90;;;4.40;;
36001;SDS011;22070;50.922;5.430;2022-08-16T15:06:25;6.30;;;4.50;;
36001;SDS011;22070;50.922;5.430;2022-08-16T15:08:51;10.23;;;4.97;;
36001;SDS011;22070;50.922;5.430;2022-08-16T15:11:17;5.40;;;4.90;;
36001;SDS011;22070;50.922;5.430;2022-08-16T15:13:43;5.30;;;4.90;;
36001;SDS011;22070;50.922;5.430;2022-08-16T15:16:08;6.68;;;4.43;;